sensor_id;sensor_type;location;lat;lon;timestamp;pressure;altitude;pressure_sealevel;temperature;humidity
78509;BME280;67802;50.846;7.958;2023-11-21T00:02:19;97152.88;;;19.18;40.81
78509;BME280;67802;50.846;7.958;2023-11-21T00:04:45;97158.03;;;19.19;40.99
78509;BME280;67802;50.846;7.958;2023-11-21T00:07:10;97155.38;;;19.19;40.83
78509;BME280;67802;50.846;7.958;2023-11-21T00:09:35;97156.22;;;19.20;41.09
78509;BME280;67802;50.846;7.958;2023-11-21T00:12:02;97153.47;;;19.21;40.64
78509;BME280;67802;50.846;7.958;2023-11-21T00:14:27;97158.56;;;19.23;40.71
78509;BME280;67802;50.846;7.958;2023-11-21T00:16:52;97154.00;;;19.25;40.64
78509;BME280;67802;50.846;7.958;2023-11-21T10:01:25;97704.31;;;18.69;40.61
78509;BME280;67802;50.846;7.958;2023-11-21T10:03:51;97707.75;;;18.70;40.99
78509;BME280;67802;50.846;7.958;2023-11-21T10:06:17;97706.94;;;18.69;40.79
78509;BME280;67802;50.846;7.958;2023-11-21T10:08:43;97707.44;;;18.63;40.83
78509;BME280;67802;50.846;7.958;2023-11-21T10:11:10;97708.50;;;18.49;40.99
78509;BME280;67802;50.846;7.958;2023-11-21T10:13:37;97706.69;;;18.38;41.32
78509;BME280;67802;50.846;7.958;2023-11-21T10:16:04;97706.56;;;18.29;41.39
78509;BME280;67802;50.846;7.958;2023-11-21T10:18:32;97710.63;;;18.21;41.79
78509;BME280;67802;50.846;7.958;2023-11-21T10:20:59;97716.34;;;18.15;42.26
78509;BME280;67802;50.846;7.958;2023-11-21T10:23:26;97712.28;;;18.11;42.50
78509;BME280;67802;50.846;7.958;2023-11-21T10:25:52;97709.63;;;18.11;42.61
78509;BME280;67802;50.846;7.958;2023-11-21T10:28:18;97715.16;;;18.19;42.39
78509;BME280;67802;50.846;7.958;2023-11-21T10:30:44;97715.41;;;18.28;41.75
78509;BME280;67802;50.846;7.958;2023-11-21T10:33:09;97713.84;;;18.36;42.12
78509;BME280;67802;50.846;7.958;2023-11-21T10:38:07;97711.13;;;18.49;41.72
78509;BME280;67802;50.846;7.958;2023-11-21T10:40:38;97709.00;;;18.54;41.82
78509;BME280;67802;50.846;7.958;2023-11-21T10:43:08;97705.03;;;18.60;41.73
78509;BME280;67802;50.846;7.958;2023-11-21T10:45:38;97702.97;;;18.64;41.63
78509;BME280;67802;50.846;7.958;2023-11-21T10:48:07;97704.78;;;18.63;41.50
78509;BME280;67802;50.846;7.958;2023-11-21T10:50:37;97717.22;;;18.61;41.69
78509;BME280;67802;50.846;7.958;2023-11-21T10:53:03;97719.00;;;18.61;41.49
78509;BME280;67802;50.846;7.958;2023-11-21T10:55:30;97725.22;;;18.60;41.74
78509;BME280;67802;50.846;7.958;2023-11-21T10:57:58;97728.81;;;18.59;41.83
78509;BME280;67802;50.846;7.958;2023-11-21T11:00:26;97728.94;;;18.57;41.75
78509;BME280;67802;50.846;7.958;2023-11-21T11:02:52;97726.41;;;18.56;41.58
78509;BME280;67802;50.846;7.958;2023-11-21T11:05:21;97719.50;;;18.54;41.69
78509;BME280;67802;50.846;7.958;2023-11-21T11:07:50;97725.72;;;18.53;41.75
78509;BME280;67802;50.846;7.958;2023-11-21T11:10:21;97719.50;;;18.54;41.57
78509;BME280;67802;50.846;7.958;2023-11-21T11:12:48;97723.69;;;18.57;41.82
78509;BME280;67802;50.846;7.958;2023-11-21T11:15:16;97722.72;;;18.58;41.59
78509;BME280;67802;50.846;7.958;2023-11-21T11:17:41;97728.56;;;18.62;41.63
78509;BME280;67802;50.846;7.958;2023-11-21T11:20:08;97717.00;;;18.64;41.46
78509;BME280;67802;50.846;7.958;2023-11-21T11:28:16;97718.19;;;18.72;41.43
78509;BME280;67802;50.846;7.958;2023-11-21T11:33:37;97730.00;;;18.77;41.52
78509;BME280;67802;50.846;7.958;2023-11-21T11:36:08;97729.78;;;18.80;41.48
78509;BME280;67802;50.846;7.958;2023-11-21T11:38:36;97730.34;;;18.84;41.62
78509;BME280;67802;50.846;7.958;2023-11-21T11:41:03;97733.69;;;18.86;41.46
78509;BME280;67802;50.846;7.958;2023-11-21T11:43:29;97732.63;;;18.89;41.62
78509;BME280;67802;50.846;7.958;2023-11-21T11:45:57;97730.72;;;18.91;41.38
78509;BME280;67802;50.846;7.958;2023-11-21T11:48:24;97735.03;;;18.92;41.30
78509;BME280;67802;50.846;7.958;2023-11-21T11:51:03;97734.91;;;18.93;41.50
78509;BME280;67802;50.846;7.958;2023-11-21T11:53:36;97730.47;;;18.94;41.51
78509;BME280;67802;50.846;7.958;2023-11-21T11:56:27;97733.88;;;18.96;41.42
78509;BME280;67802;50.846;7.958;2023-11-21T11:58:55;97746.06;;;18.97;41.38
78509;BME280;67802;50.846;7.958;2023-11-21T12:01:22;97747.75;;;18.98;41.16
78509;BME280;67802;50.846;7.958;2023-11-21T12:06:56;97736.13;;;19.01;41.25
78509;BME280;67802;50.846;7.958;2023-11-21T12:09:23;97742.25;;;19.01;41.15
78509;BME280;67802;50.846;7.958;2023-11-21T12:11:49;97744.84;;;18.90;41.36
78509;BME280;67802;50.846;7.958;2023-11-21T12:14:15;97742.31;;;18.88;41.33
78509;BME280;67802;50.846;7.958;2023-11-21T12:16:41;97745.66;;;18.90;41.47
78509;BME280;67802;50.846;7.958;2023-11-21T12:19:08;97744.59;;;18.93;41.28
78509;BME280;67802;50.846;7.958;2023-11-21T12:21:33;97747.94;;;18.95;41.28
78509;BME280;67802;50.846;7.958;2023-11-21T12:23:59;97742.59;;;18.96;41.21
78509;BME280;67802;50.846;7.958;2023-11-21T12:26:25;97735.53;;;18.97;41.17
78509;BME280;67802;50.846;7.958;2023-11-21T12:28:54;97738.88;;;18.99;41.33
78509;BME280;67802;50.846;7.958;2023-11-21T12:31:23;97740.56;;;19.00;41.28
78509;BME280;67802;50.846;7.958;2023-11-21T12:33:48;97748.31;;;19.02;41.13
78509;BME280;67802;50.846;7.958;2023-11-21T12:36:15;97740.44;;;19.02;41.13
78509;BME280;67802;50.846;7.958;2023-11-21T12:38:41;97751.81;;;19.02;41.04
78509;BME280;67802;50.846;7.958;2023-11-21T12:41:07;97752.78;;;19.01;41.22
78509;BME280;67802;50.846;7.958;2023-11-21T12:43:33;97753.59;;;19.02;41.18
78509;BME280;67802;50.846;7.958;2023-11-21T12:46:10;97753.59;;;19.02;41.26
78509;BME280;67802;50.846;7.958;2023-11-21T12:48:40;97755.41;;;19.01;41.30
78509;BME280;67802;50.846;7.958;2023-11-21T12:51:09;97761.63;;;19.00;41.36
78509;BME280;67802;50.846;7.958;2023-11-21T12:53:37;97767.72;;;19.01;41.24
78509;BME280;67802;50.846;7.958;2023-11-21T12:56:13;97766.88;;;19.00;41.30
78509;BME280;67802;50.846;7.958;2023-11-21T12:58:39;97766.88;;;19.00;41.09
78509;BME280;67802;50.846;7.958;2023-11-21T13:01:08;97773.94;;;19.00;41.22
78509;BME280;67802;50.846;7.958;2023-11-21T13:03:39;97771.31;;;19.00;41.25
78509;BME280;67802;50.846;7.958;2023-11-21T13:06:05;97770.47;;;18.99;41.29
78509;BME280;67802;50.846;7.958;2023-11-21T13:08:33;97772.16;;;19.00;41.39
78509;BME280;67802;50.846;7.958;2023-11-21T13:10:59;97767.84;;;18.99;41.24
78509;BME280;67802;50.846;7.958;2023-11-21T13:13:26;97781.00;;;18.99;41.37
78509;BME280;67802;50.846;7.958;2023-11-21T13:15:54;97773.09;;;18.99;41.21
78509;BME280;67802;50.846;7.958;2023-11-21T13:18:26;97781.00;;;18.99;41.18
78509;BME280;67802;50.846;7.958;2023-11-21T13:20:55;97779.34;;;18.98;41.25
78509;BME280;67802;50.846;7.958;2023-11-21T13:23:22;97784.59;;;18.98;41.31
78509;BME280;67802;50.846;7.958;2023-11-21T13:25:48;97782.91;;;18.97;41.29
78509;BME280;67802;50.846;7.958;2023-11-21T13:28:14;97774.16;;;18.96;41.32
78509;BME280;67802;50.846;7.958;2023-11-21T13:30:40;97775.97;;;18.96;41.47
78509;BME280;67802;50.846;7.958;2023-11-21T13:33:07;97775.97;;;18.96;41.30
78509;BME280;67802;50.846;7.958;2023-11-21T13:35:34;97781.25;;;18.96;41.28
78509;BME280;67802;50.846;7.958;2023-11-21T13:38:13;97782.16;;;18.95;41.41
78509;BME280;67802;50.846;7.958;2023-11-21T13:40:40;97795.34;;;18.95;41.24
78509;BME280;67802;50.846;7.958;2023-11-21T13:43:12;97793.66;;;18.94;41.25
78509;BME280;67802;50.846;7.958;2023-11-21T13:45:41;97791.97;;;18.93;41.42
78509;BME280;67802;50.846;7.958;2023-11-21T13:48:08;97797.25;;;18.93;41.17
78509;BME280;67802;50.846;7.958;2023-11-21T13:50:42;97797.34;;;18.91;41.33
78509;BME280;67802;50.846;7.958;2023-11-21T13:53:20;97802.97;;;18.87;41.39
78509;BME280;67802;50.846;7.958;2023-11-21T13:55:52;97809.81;;;18.78;41.49
78509;BME280;67802;50.846;7.958;2023-11-21T13:58:23;97808.72;;;18.69;41.67
78509;BME280;67802;50.846;7.958;2023-11-21T14:00:57;97820.66;;;18.62;41.95
78509;BME280;67802;50.846;7.958;2023-11-21T14:03:23;97818.63;;;18.54;41.77
78509;BME280;67802;50.846;7.958;2023-11-21T14:05:57;97820.03;;;18.47;41.98
78509;BME280;67802;50.846;7.958;2023-11-21T14:08:23;97821.22;;;18.43;42.15
78509;BME280;67802;50.846;7.958;2023-11-21T14:10:54;97828.53;;;18.39;42.23
78509;BME280;67802;50.846;7.958;2023-11-21T14:13:23;97828.03;;;18.34;42.37
78509;BME280;67802;50.846;7.958;2023-11-21T14:15:50;97828.25;;;18.31;42.23
78509;BME280;67802;50.846;7.958;2023-11-21T14:18:19;97835.41;;;18.29;42.48
78509;BME280;67802;50.846;7.958;2023-11-21T14:20:52;97837.31;;;18.27;42.60
78509;BME280;67802;50.846;7.958;2023-11-21T14:23:17;97839.22;;;18.24;42.65
78509;BME280;67802;50.846;7.958;2023-11-21T14:25:43;97843.75;;;18.22;42.71
78509;BME280;67802;50.846;7.958;2023-11-21T14:28:08;97848.28;;;18.20;42.63
78509;BME280;67802;50.846;7.958;2023-11-21T14:30:37;97856.19;;;18.20;42.73
78509;BME280;67802;50.846;7.958;2023-11-21T14:33:03;97855.44;;;18.18;42.67
78509;BME280;67802;50.846;7.958;2023-11-21T14:35:28;97859.03;;;18.17;42.86
78509;BME280;67802;50.846;7.958;2023-11-21T14:37:57;97856.41;;;18.17;42.84
78509;BME280;67802;50.846;7.958;2023-11-21T14:40:24;97859.03;;;18.17;42.78
78509;BME280;67802;50.846;7.958;2023-11-21T14:42:50;97853.78;;;18.17;42.70
78509;BME280;67802;50.846;7.958;2023-11-21T14:45:19;97853.78;;;18.17;42.80
78509;BME280;67802;50.846;7.958;2023-11-21T14:47:46;97860.72;;;18.18;42.69
78509;BME280;67802;50.846;7.958;2023-11-21T14:50:19;97871.22;;;18.18;42.90
78509;BME280;67802;50.846;7.958;2023-11-21T14:53:03;97874.72;;;18.19;42.80
78509;BME280;67802;50.846;7.958;2023-11-21T14:55:33;97874.59;;;18.20;42.98
78509;BME280;67802;50.846;7.958;2023-11-21T14:58:18;97867.66;;;18.19;42.80
78509;BME280;67802;50.846;7.958;2023-11-21T15:00:53;97874.59;;;18.20;42.77
78509;BME280;67802;50.846;7.958;2023-11-21T15:03:23;97874.59;;;18.20;42.92
78509;BME280;67802;50.846;7.958;2023-11-21T15:06:09;97879.84;;;18.20;42.75
78509;BME280;67802;50.846;7.958;2023-11-21T15:08:58;97885.09;;;18.20;42.78
78509;BME280;67802;50.846;7.958;2023-11-21T15:11:43;97884.16;;;18.21;42.59
78509;BME280;67802;50.846;7.958;2023-11-21T15:14:09;97879.75;;;18.22;43.00
78509;BME280;67802;50.846;7.958;2023-11-21T15:16:38;97881.44;;;18.23;42.74
78509;BME280;67802;50.846;7.958;2023-11-21T15:19:11;97888.22;;;18.26;42.90
78509;BME280;67802;50.846;7.958;2023-11-21T15:21:43;97897.94;;;18.25;42.76
78509;BME280;67802;50.846;7.958;2023-11-21T15:24:09;97899.59;;;18.26;42.76
78509;BME280;67802;50.846;7.958;2023-11-21T15:26:36;97894.34;;;18.26;42.73
78509;BME280;67802;50.846;7.958;2023-11-21T15:29:01;97903.19;;;18.25;42.86
78509;BME280;67802;50.846;7.958;2023-11-21T15:31:26;97907.59;;;18.24;42.73
78509;BME280;67802;50.846;7.958;2023-11-21T15:33:52;97909.25;;;18.26;42.75
78509;BME280;67802;50.846;7.958;2023-11-21T15:36:18;97913.69;;;18.25;42.67
78509;BME280;67802;50.846;7.958;2023-11-21T15:38:44;97916.66;;;18.20;42.78
78509;BME280;67802;50.846;7.958;2023-11-21T15:41:09;97918.78;;;18.15;42.87
78509;BME280;67802;50.846;7.958;2023-11-21T15:43:36;97916.59;;;18.09;42.95
78509;BME280;67802;50.846;7.958;2023-11-21T15:46:02;97926.38;;;18.07;43.17
78509;BME280;67802;50.846;7.958;2023-11-21T15:48:32;97927.53;;;18.03;43.24
78509;BME280;67802;50.846;7.958;2023-11-21T15:50:58;97923.47;;;17.99;43.21
78509;BME280;67802;50.846;7.958;2023-11-21T15:53:24;97936.59;;;17.99;43.41
78509;BME280;67802;50.846;7.958;2023-11-21T15:55:49;97929.94;;;18.06;43.19
78509;BME280;67802;50.846;7.958;2023-11-21T15:58:14;97924.25;;;18.12;43.14
78509;BME280;67802;50.846;7.958;2023-11-21T16:00:40;97939.38;;;18.21;42.88
78509;BME280;67802;50.846;7.958;2023-11-21T16:03:06;97944.19;;;18.28;43.07
78509;BME280;67802;50.846;7.958;2023-11-21T16:05:32;97948.25;;;18.32;43.03
78509;BME280;67802;50.846;7.958;2023-11-21T16:07:57;97950.66;;;18.35;42.70
78509;BME280;67802;50.846;7.958;2023-11-21T16:10:22;97948.53;;;18.40;42.75
78509;BME280;67802;50.846;7.958;2023-11-21T16:12:48;97951.91;;;18.42;42.71
78509;BME280;67802;50.846;7.958;2023-11-21T16:15:13;97959.56;;;18.45;42.54
78509;BME280;67802;50.846;7.958;2023-11-21T16:17:39;97964.59;;;18.48;42.50
78509;BME280;67802;50.846;7.958;2023-11-21T16:20:05;97971.41;;;18.51;42.40
78509;BME280;67802;50.846;7.958;2023-11-21T16:22:39;97963.44;;;18.52;42.34
78509;BME280;67802;50.846;7.958;2023-11-21T16:25:05;97972.06;;;18.54;42.40
78509;BME280;67802;50.846;7.958;2023-11-21T16:27:36;97965.72;;;18.57;42.24
78509;BME280;67802;50.846;7.958;2023-11-21T16:30:04;97970.13;;;18.57;42.17
78509;BME280;67802;50.846;7.958;2023-11-21T16:32:29;97968.22;;;18.59;42.06
78509;BME280;67802;50.846;7.958;2023-11-21T16:34:56;97975.16;;;18.60;42.06
78509;BME280;67802;50.846;7.958;2023-11-21T16:37:22;97976.81;;;18.61;41.95
78509;BME280;67802;50.846;7.958;2023-11-21T16:39:47;97988.22;;;18.61;41.83
78509;BME280;67802;50.846;7.958;2023-11-21T16:42:12;97989.16;;;18.60;42.04
78509;BME280;67802;50.846;7.958;2023-11-21T16:44:38;97996.94;;;18.62;42.11
78509;BME280;67802;50.846;7.958;2023-11-21T16:47:03;97996.19;;;18.60;41.93
78509;BME280;67802;50.846;7.958;2023-11-21T16:49:32;97995.25;;;18.61;41.98
78509;BME280;67802;50.846;7.958;2023-11-21T16:52:02;97997.06;;;18.60;41.94
78509;BME280;67802;50.846;7.958;2023-11-21T16:54:28;97997.88;;;18.61;41.97
78509;BME280;67802;50.846;7.958;2023-11-21T16:56:54;97997.06;;;18.60;42.11
78509;BME280;67802;50.846;7.958;2023-11-21T16:59:19;98004.00;;;18.61;41.97
78509;BME280;67802;50.846;7.958;2023-11-21T17:01:48;98018.09;;;18.60;41.98
78509;BME280;67802;50.846;7.958;2023-11-21T17:04:14;98019.88;;;18.60;42.05
78509;BME280;67802;50.846;7.958;2023-11-21T17:06:41;98029.44;;;18.61;41.90
78509;BME280;67802;50.846;7.958;2023-11-21T17:09:06;98030.41;;;18.60;41.96
78509;BME280;67802;50.846;7.958;2023-11-21T17:11:38;98037.31;;;18.49;42.22
78509;BME280;67802;50.846;7.958;2023-11-21T17:14:05;98040.91;;;18.35;42.60
78509;BME280;67802;50.846;7.958;2023-11-21T17:16:31;98045.34;;;18.35;42.78
78509;BME280;67802;50.846;7.958;2023-11-21T17:18:56;98043.31;;;18.38;42.52
78509;BME280;67802;50.846;7.958;2023-11-21T17:21:21;98047.41;;;18.43;42.92
78509;BME280;67802;50.846;7.958;2023-11-21T17:23:47;98055.94;;;18.46;42.56
78509;BME280;67802;50.846;7.958;2023-11-21T17:26:12;98058.34;;;18.49;42.62
78509;BME280;67802;50.846;7.958;2023-11-21T17:28:43;98055.50;;;18.52;42.35
78509;BME280;67802;50.846;7.958;2023-11-21T17:31:09;98068.41;;;18.56;42.52
78509;BME280;67802;50.846;7.958;2023-11-21T17:33:35;98064.81;;;18.57;42.20
78509;BME280;67802;50.846;7.958;2023-11-21T17:36:01;98060.28;;;18.59;42.29
78509;BME280;67802;50.846;7.958;2023-11-21T17:38:26;98071.53;;;18.61;42.12
78509;BME280;67802;50.846;7.958;2023-11-21T17:40:51;98080.16;;;18.63;42.05
78509;BME280;67802;50.846;7.958;2023-11-21T17:43:17;98084.38;;;18.65;41.93
78509;BME280;67802;50.846;7.958;2023-11-21T17:45:43;98086.88;;;18.67;41.92
78509;BME280;67802;50.846;7.958;2023-11-21T17:48:08;98091.94;;;18.70;41.84
78509;BME280;67802;50.846;7.958;2023-11-21T17:50:36;98091.84;;;18.72;41.71
78509;BME280;67802;50.846;7.958;2023-11-21T17:53:02;98091.72;;;18.73;41.73
78509;BME280;67802;50.846;7.958;2023-11-21T17:55:29;98095.06;;;18.75;41.86
78509;BME280;67802;50.846;7.958;2023-11-21T17:57:54;98097.63;;;18.77;41.71
78509;BME280;67802;50.846;7.958;2023-11-21T18:00:19;98109.69;;;18.79;41.77
78509;BME280;67802;50.846;7.958;2023-11-21T18:02:45;98116.63;;;18.80;41.46
78509;BME280;67802;50.846;7.958;2023-11-21T18:05:10;98120.00;;;18.82;41.58
78509;BME280;67802;50.846;7.958;2023-11-21T18:07:38;98126.00;;;18.84;41.43
78509;BME280;67802;50.846;7.958;2023-11-21T18:10:04;98135.56;;;18.86;41.48
78509;BME280;67802;50.846;7.958;2023-11-21T18:12:31;98137.13;;;18.88;41.31
78509;BME280;67802;50.846;7.958;2023-11-21T18:14:56;98147.66;;;18.88;41.28
78509;BME280;67802;50.846;7.958;2023-11-21T18:17:22;98156.13;;;18.80;41.46
78509;BME280;67802;50.846;7.958;2023-11-21T18:19:47;98158.63;;;18.82;41.44
78509;BME280;67802;50.846;7.958;2023-11-21T18:22:18;98164.63;;;18.84;41.19
78509;BME280;67802;50.846;7.958;2023-11-21T18:24:43;98167.16;;;18.86;41.22
78509;BME280;67802;50.846;7.958;2023-11-21T18:27:09;98173.16;;;18.88;41.23
78509;BME280;67802;50.846;7.958;2023-11-21T18:29:34;98184.41;;;18.90;41.25
78509;BME280;67802;50.846;7.958;2023-11-21T18:31:59;98188.72;;;18.91;41.15
78509;BME280;67802;50.846;7.958;2023-11-21T18:34:25;98196.63;;;18.91;41.15
78509;BME280;67802;50.846;7.958;2023-11-21T18:36:51;98200.00;;;18.93;41.29
78509;BME280;67802;50.846;7.958;2023-11-21T18:39:16;98207.69;;;18.96;41.19
78509;BME280;67802;50.846;7.958;2023-11-21T18:41:43;98210.34;;;18.96;41.26
78509;BME280;67802;50.846;7.958;2023-11-21T18:44:08;98228.53;;;18.99;41.36
78509;BME280;67802;50.846;7.958;2023-11-21T18:46:38;98236.31;;;19.01;41.22
78509;BME280;67802;50.846;7.958;2023-11-21T18:49:03;98244.13;;;19.02;41.19
78509;BME280;67802;50.846;7.958;2023-11-21T18:51:29;98246.75;;;19.02;41.15
78509;BME280;67802;50.846;7.958;2023-11-21T18:53:54;98245.81;;;19.03;40.99
78509;BME280;67802;50.846;7.958;2023-11-21T18:56:20;98259.91;;;19.02;41.02
78509;BME280;67802;50.846;7.958;2023-11-21T18:58:47;98253.78;;;19.02;40.90
78509;BME280;67802;50.846;7.958;2023-11-21T19:01:12;98260.00;;;19.01;41.11
78509;BME280;67802;50.846;7.958;2023-11-21T19:03:41;98271.50;;;19.00;40.56
78509;BME280;67802;50.846;7.958;2023-11-21T19:06:07;98270.66;;;18.99;40.52
78509;BME280;67802;50.846;7.958;2023-11-21T19:08:34;98274.25;;;18.98;40.59
78509;BME280;67802;50.846;7.958;2023-11-21T19:10:59;98278.66;;;18.97;40.21
78509;BME280;67802;50.846;7.958;2023-11-21T19:13:25;98275.19;;;18.97;40.10
78509;BME280;67802;50.846;7.958;2023-11-21T19:15:50;98279.69;;;18.95;40.22
78509;BME280;67802;50.846;7.958;2023-11-21T19:18:15;98293.06;;;18.92;40.00
78509;BME280;67802;50.846;7.958;2023-11-21T19:20:40;98301.28;;;18.87;39.61
78509;BME280;67802;50.846;7.958;2023-11-21T19:23:06;98294.66;;;18.81;39.38
78509;BME280;67802;50.846;7.958;2023-11-21T19:25:32;98298.44;;;18.77;39.80
78509;BME280;67802;50.846;7.958;2023-11-21T19:27:58;98302.97;;;18.75;39.64
78509;BME280;67802;50.846;7.958;2023-11-21T19:30:23;98311.09;;;18.72;39.82
78509;BME280;67802;50.846;7.958;2023-11-21T19:32:49;98305.81;;;18.72;39.82
78509;BME280;67802;50.846;7.958;2023-11-21T19:35:15;98311.28;;;18.69;39.80
78509;BME280;67802;50.846;7.958;2023-11-21T19:37:41;98309.59;;;18.68;40.05
78509;BME280;67802;50.846;7.958;2023-11-21T19:40:06;98312.38;;;18.66;39.88
78509;BME280;67802;50.846;7.958;2023-11-21T19:42:32;98312.56;;;18.63;40.00
78509;BME280;67802;50.846;7.958;2023-11-21T19:44:59;98307.53;;;18.60;39.49
78509;BME280;67802;50.846;7.958;2023-11-21T19:47:24;98321.63;;;18.59;39.29
78509;BME280;67802;50.846;7.958;2023-11-21T19:49:50;98315.72;;;18.56;39.55
78509;BME280;67802;50.846;7.958;2023-11-21T19:52:18;98323.72;;;18.54;39.15
78509;BME280;67802;50.846;7.958;2023-11-21T19:54:43;98324.78;;;18.51;39.21
78509;BME280;67802;50.846;7.958;2023-11-21T19:57:09;98330.03;;;18.51;39.36
78509;BME280;67802;50.846;7.958;2023-11-21T19:59:37;98331.94;;;18.49;38.90
78509;BME280;67802;50.846;7.958;2023-11-21T20:02:07;98336.34;;;18.49;39.10
78509;BME280;67802;50.846;7.958;2023-11-21T20:04:33;98336.47;;;18.47;38.93
78509;BME280;67802;50.846;7.958;2023-11-21T20:06:58;98336.47;;;18.47;39.16
78509;BME280;67802;50.846;7.958;2023-11-21T20:09:24;98343.50;;;18.47;39.60
78509;BME280;67802;50.846;7.958;2023-11-21T20:11:49;98343.50;;;18.47;39.21
78509;BME280;67802;50.846;7.958;2023-11-21T20:14:16;98350.44;;;18.48;39.63
78509;BME280;67802;50.846;7.958;2023-11-21T20:16:41;98351.31;;;18.48;39.70
78509;BME280;67802;50.846;7.958;2023-11-21T20:19:06;98344.16;;;18.50;39.69
78509;BME280;67802;50.846;7.958;2023-11-21T20:21:35;98352.78;;;18.52;39.70
78509;BME280;67802;50.846;7.958;2023-11-21T20:24:00;98350.88;;;18.54;39.70
78509;BME280;67802;50.846;7.958;2023-11-21T20:26:26;98357.81;;;18.56;39.91
78509;BME280;67802;50.846;7.958;2023-11-21T20:28:52;98365.59;;;18.57;39.83
78509;BME280;67802;50.846;7.958;2023-11-21T20:31:19;98368.13;;;18.59;39.98
78509;BME280;67802;50.846;7.958;2023-11-21T20:33:44;98375.94;;;18.60;40.01
78509;BME280;67802;50.846;7.958;2023-11-21T20:36:10;98371.50;;;18.61;39.91
78509;BME280;67802;50.846;7.958;2023-11-21T20:38:35;98380.97;;;18.63;39.97
78509;BME280;67802;50.846;7.958;2023-11-21T20:41:00;98386.13;;;18.65;40.02
78509;BME280;67802;50.846;7.958;2023-11-21T20:43:26;98399.19;;;18.66;39.96
78509;BME280;67802;50.846;7.958;2023-11-21T20:45:51;98393.81;;;18.68;39.76
78509;BME280;67802;50.846;7.958;2023-11-21T20:48:17;98393.63;;;18.71;39.80
78509;BME280;67802;50.846;7.958;2023-11-21T20:50:44;98399.63;;;18.73;39.93
78509;BME280;67802;50.846;7.958;2023-11-21T20:53:10;98400.34;;;18.75;39.81
78509;BME280;67802;50.846;7.958;2023-11-21T20:55:39;98398.47;;;18.77;39.75
78509;BME280;67802;50.846;7.958;2023-11-21T20:58:05;98400.16;;;18.78;39.51
78509;BME280;67802;50.846;7.958;2023-11-21T21:00:31;98399.19;;;18.79;39.53
78509;BME280;67802;50.846;7.958;2023-11-21T21:02:57;98400.88;;;18.80;39.34
78509;BME280;67802;50.846;7.958;2023-11-21T21:05:22;98409.41;;;18.84;39.58
78509;BME280;67802;50.846;7.958;2023-11-21T21:07:48;98407.63;;;18.84;39.65
78509;BME280;67802;50.846;7.958;2023-11-21T21:10:14;98409.19;;;18.87;39.67
78509;BME280;67802;50.846;7.958;2023-11-21T21:12:39;98420.47;;;18.89;39.75
78509;BME280;67802;50.846;7.958;2023-11-21T21:15:07;98426.47;;;18.91;39.71
78509;BME280;67802;50.846;7.958;2023-11-21T21:17:35;98434.28;;;18.93;39.76
78509;BME280;67802;50.846;7.958;2023-11-21T21:20:00;98432.38;;;18.95;39.61
78509;BME280;67802;50.846;7.958;2023-11-21T21:22:25;98428.84;;;18.96;39.65
78509;BME280;67802;50.846;7.958;2023-11-21T21:24:51;98432.22;;;18.98;39.56
78509;BME280;67802;50.846;7.958;2023-11-21T21:27:16;98433.91;;;18.99;39.34
78509;BME280;67802;50.846;7.958;2023-11-21T21:29:41;98440.84;;;19.00;39.45
78509;BME280;67802;50.846;7.958;2023-11-21T21:32:06;98447.81;;;19.01;39.41
78509;BME280;67802;50.846;7.958;2023-11-21T21:34:32;98449.50;;;19.02;39.53
78509;BME280;67802;50.846;7.958;2023-11-21T21:36:58;98460.84;;;19.03;39.55
78509;BME280;67802;50.846;7.958;2023-11-21T21:39:24;98448.53;;;19.03;39.64
78509;BME280;67802;50.846;7.958;2023-11-21T21:41:50;98451.19;;;19.03;39.61
78509;BME280;67802;50.846;7.958;2023-11-21T21:44:16;98441.59;;;19.02;39.69
78509;BME280;67802;50.846;7.958;2023-11-21T21:46:41;98442.53;;;19.01;39.61
78509;BME280;67802;50.846;7.958;2023-11-21T21:49:06;98457.47;;;19.01;39.44
78509;BME280;67802;50.846;7.958;2023-11-21T21:51:34;98466.31;;;19.00;39.54
78509;BME280;67802;50.846;7.958;2023-11-21T21:54:01;98461.19;;;18.98;39.26
78509;BME280;67802;50.846;7.958;2023-11-21T21:56:26;98465.69;;;18.96;39.32
78509;BME280;67802;50.846;7.958;2023-11-21T21:58:52;98465.75;;;18.94;39.36
78509;BME280;67802;50.846;7.958;2023-11-21T22:01:17;98466.69;;;18.93;38.74
78509;BME280;67802;50.846;7.958;2023-11-21T22:03:43;98469.44;;;18.92;38.93
78509;BME280;67802;50.846;7.958;2023-11-21T22:06:08;98469.66;;;18.89;38.70
78509;BME280;67802;50.846;7.958;2023-11-21T22:08:34;98470.69;;;18.86;38.80
78509;BME280;67802;50.846;7.958;2023-11-21T22:10:59;98467.31;;;18.84;38.80
78509;BME280;67802;50.846;7.958;2023-11-21T22:13:26;98477.00;;;18.83;38.97
78509;BME280;67802;50.846;7.958;2023-11-21T22:15:52;98485.00;;;18.82;39.12
78509;BME280;67802;50.846;7.958;2023-11-21T22:18:17;98482.47;;;18.80;39.11
78509;BME280;67802;50.846;7.958;2023-11-21T22:20:42;98486.06;;;18.79;38.68
78509;BME280;67802;50.846;7.958;2023-11-21T22:23:07;98487.94;;;18.77;38.27
78509;BME280;67802;50.846;7.958;2023-11-21T22:25:34;98500.38;;;18.75;38.81
78509;BME280;67802;50.846;7.958;2023-11-21T22:28:01;98509.31;;;18.73;38.46
78509;BME280;67802;50.846;7.958;2023-11-21T22:30:26;98514.66;;;18.71;38.87
78509;BME280;67802;50.846;7.958;2023-11-21T22:32:52;98519.09;;;18.71;39.19
78509;BME280;67802;50.846;7.958;2023-11-21T22:35:21;98511.41;;;18.67;39.06
78509;BME280;67802;50.846;7.958;2023-11-21T22:37:46;98514.13;;;18.66;38.47
78509;BME280;67802;50.846;7.958;2023-11-21T22:40:11;98509.81;;;18.65;38.75
78509;BME280;67802;50.846;7.958;2023-11-21T22:42:37;98518.66;;;18.64;38.76
78509;BME280;67802;50.846;7.958;2023-11-21T22:45:04;98519.59;;;18.63;38.86
78509;BME280;67802;50.846;7.958;2023-11-21T22:47:30;98529.38;;;18.61;38.79
78509;BME280;67802;50.846;7.958;2023-11-21T22:49:55;98537.25;;;18.61;39.11
78509;BME280;67802;50.846;7.958;2023-11-21T22:52:21;98522.41;;;18.60;39.15
78509;BME280;67802;50.846;7.958;2023-11-21T22:54:49;98538.22;;;18.60;39.02
78509;BME280;67802;50.846;7.958;2023-11-21T22:57:15;98532.13;;;18.59;39.13